createdAt,value
2023-02-22T00:01:44.165Z,8.23
2023-02-22T00:04:11.124Z,7.23
2023-02-22T00:06:37.952Z,7.50
2023-02-22T00:09:05.064Z,8.97
2023-02-22T00:11:31.886Z,7.13
2023-02-22T00:13:58.807Z,6.93
2023-02-22T00:16:26.663Z,7.67
2023-02-22T00:18:54.050Z,7.33
2023-02-22T00:21:21.178Z,7.17
2023-02-22T00:23:49.112Z,7.83
2023-02-22T00:26:19.198Z,7.33
2023-02-22T00:28:51.144Z,7.03
2023-02-22T00:31:18.898Z,7.43
2023-02-22T00:33:45.938Z,9.57
2023-02-22T00:36:13.910Z,9.67
2023-02-22T00:38:41.486Z,9.57
2023-02-22T00:41:08.912Z,9.20
2023-02-22T00:43:36.097Z,8.50
2023-02-22T00:46:03.238Z,8.43
2023-02-22T00:48:30.178Z,8.20
2023-02-22T00:50:58.821Z,8.50
2023-02-22T00:53:26.086Z,8.37
2023-02-22T00:55:53.545Z,8.70
2023-02-22T00:58:20.473Z,8.40
2023-02-22T01:00:47.354Z,8.07
2023-02-22T01:03:16.739Z,8.87
2023-02-22T01:05:44.106Z,11.53
2023-02-22T01:08:12.295Z,9.50
2023-02-22T01:10:39.745Z,9.17
2023-02-22T01:13:09.383Z,10.63
2023-02-22T01:15:38.080Z,9.43
2023-02-22T01:18:05.480Z,8.97
2023-02-22T01:20:32.582Z,9.73
2023-02-22T01:23:00.435Z,8.50
2023-02-22T01:25:29.842Z,10.43
2023-02-22T01:27:57.440Z,9.80
2023-02-22T01:30:26.753Z,11.30
2023-02-22T01:32:54.083Z,12.43
2023-02-22T01:35:22.463Z,12.23
2023-02-22T01:37:50.491Z,11.23
2023-02-22T01:40:20.586Z,10.93
2023-02-22T01:42:48.268Z,11.50
2023-02-22T01:45:29.823Z,10.93
2023-02-22T01:47:58.441Z,12.53
2023-02-22T01:50:25.237Z,11.07
2023-02-22T01:52:52.111Z,17.33
2023-02-22T01:55:19.377Z,13.80
2023-02-22T01:57:46.824Z,13.90
2023-02-22T02:00:17.050Z,14.70
2023-02-22T02:02:46.971Z,13.47
2023-02-22T02:05:14.012Z,14.97
2023-02-22T02:07:41.099Z,15.47
2023-02-22T02:10:14.555Z,14.50
2023-02-22T02:12:48.835Z,20.37
2023-02-22T02:15:25.395Z,24.53
2023-02-22T02:17:54.201Z,20.23
2023-02-22T02:20:27.156Z,20.23
2023-02-22T02:23:01.084Z,16.17
2023-02-22T02:25:46.282Z,14.60
2023-02-22T02:28:34.296Z,14.13
2023-02-22T02:31:19.813Z,16.83
2023-02-22T02:33:50.257Z,16.50
2023-02-22T02:36:26.751Z,15.23
2023-02-22T02:39:05.884Z,18.73
2023-02-22T02:41:37.366Z,18.13
2023-02-22T02:44:10.293Z,17.37
2023-02-22T02:46:37.505Z,23.83
2023-02-22T02:49:09.040Z,23.67
2023-02-22T02:51:38.359Z,17.57
2023-02-22T02:54:06.328Z,16.63
2023-02-22T02:56:33.556Z,14.50
2023-02-22T02:59:00.621Z,15.33
2023-02-22T03:01:42.843Z,13.67
2023-02-22T03:04:20.633Z,14.53
2023-02-22T03:07:06.094Z,15.87
2023-02-22T03:09:37.153Z,15.20
2023-02-22T03:12:13.118Z,12.37
2023-02-22T03:14:39.987Z,14.53
2023-02-22T03:17:06.879Z,13.17
2023-02-22T03:19:48.053Z,13.57
2023-02-22T03:22:18.789Z,12.70
2023-02-22T03:24:45.589Z,10.33
2023-02-22T03:27:14.814Z,10.03
2023-02-22T03:29:47.370Z,7.80
2023-02-22T03:32:16.964Z,9.10
2023-02-22T03:34:46.396Z,8.80
2023-02-22T03:37:16.832Z,8.43
2023-02-22T03:39:47.632Z,9.90
2023-02-22T03:42:16.537Z,9.00
2023-02-22T03:44:44.013Z,9.53
2023-02-22T03:47:16.436Z,9.30
2023-02-22T03:49:49.825Z,7.27
2023-02-22T03:52:17.576Z,8.53
2023-02-22T03:54:44.545Z,8.80
2023-02-22T03:57:17.168Z,9.40
2023-02-22T03:59:45.324Z,8.93
2023-02-22T04:02:12.216Z,8.83
2023-02-22T04:04:39.045Z,8.73
2023-02-22T04:09:51.206Z,8.37
2023-02-22T04:12:18.558Z,7.43
2023-02-22T04:14:59.125Z,7.50
2023-02-22T04:17:26.122Z,7.80
2023-02-22T04:19:53.113Z,7.37
2023-02-22T04:22:22.224Z,7.47
2023-02-22T04:24:49.192Z,7.03
2023-02-22T04:27:17.946Z,7.57
2023-02-22T04:29:45.565Z,8.50
2023-02-22T04:32:12.438Z,7.77
2023-02-22T04:34:39.601Z,8.17
2023-02-22T04:37:07.840Z,9.93
2023-02-22T04:39:35.327Z,9.53
2023-02-22T04:42:02.248Z,10.03
2023-02-22T04:44:29.839Z,10.97
2023-02-22T04:46:57.873Z,10.07
2023-02-22T04:49:25.018Z,14.00
2023-02-22T04:51:53.622Z,10.80
2023-02-22T04:54:24.539Z,16.03
2023-02-22T04:56:52.316Z,12.77
2023-02-22T04:59:19.933Z,13.73
2023-02-22T05:01:53.722Z,11.77
2023-02-22T05:04:21.907Z,12.77
2023-02-22T05:06:48.887Z,11.27
2023-02-22T05:09:15.778Z,12.17
2023-02-22T05:11:42.516Z,12.73
2023-02-22T05:14:09.328Z,11.87
2023-02-22T05:16:36.339Z,12.07
2023-02-22T05:19:03.304Z,11.20
2023-02-22T05:21:30.157Z,11.53
2023-02-22T05:23:57.672Z,13.03
2023-02-22T05:26:24.606Z,13.13
2023-02-22T05:28:51.363Z,14.37
2023-02-22T05:31:18.535Z,13.47
2023-02-22T05:33:45.519Z,12.63
2023-02-22T05:36:12.424Z,14.03
2023-02-22T05:38:43.658Z,13.43
2023-02-22T05:41:13.903Z,15.00
2023-02-22T05:43:41.008Z,14.50
2023-02-22T05:46:08.213Z,15.97
2023-02-22T05:48:35.142Z,11.03
2023-02-22T05:51:02.182Z,10.73
2023-02-22T05:53:29.251Z,10.43
2023-02-22T05:55:56.105Z,11.53
2023-02-22T05:58:23.492Z,11.40
2023-02-22T06:00:50.550Z,11.73
2023-02-22T06:03:17.355Z,12.13
2023-02-22T06:05:44.444Z,11.23
2023-02-22T06:08:11.486Z,12.43
2023-02-22T06:10:38.435Z,12.77
2023-02-22T06:13:05.867Z,12.53
2023-02-22T06:15:32.712Z,11.43
2023-02-22T06:18:00.338Z,11.30
2023-02-22T06:20:28.279Z,12.00
2023-02-22T06:22:56.240Z,11.77
2023-02-22T06:25:24.378Z,12.37
2023-02-22T06:27:51.568Z,12.17
2023-02-22T06:30:20.030Z,12.50
2023-02-22T06:32:46.977Z,12.70
2023-02-22T06:35:14.918Z,12.97
2023-02-22T06:37:41.901Z,12.87
2023-02-22T06:40:09.251Z,12.90
2023-02-22T06:42:36.332Z,15.90
2023-02-22T06:45:03.361Z,13.47
2023-02-22T06:47:30.158Z,27.03
2023-02-22T06:49:58.204Z,28.63
2023-02-22T06:52:25.281Z,30.70
2023-02-22T06:54:52.216Z,19.97
2023-02-22T06:57:19.303Z,14.07
2023-02-22T06:59:46.673Z,15.00
2023-02-22T07:02:14.145Z,15.93
2023-02-22T07:04:43.269Z,18.90
2023-02-22T07:07:10.972Z,20.80
2023-02-22T07:09:37.763Z,17.17
2023-02-22T07:12:04.626Z,15.77
2023-02-22T07:14:31.482Z,13.47
2023-02-22T07:16:58.302Z,18.07
2023-02-22T07:19:25.191Z,16.37
2023-02-22T07:21:59.430Z,16.13
2023-02-22T07:24:28.653Z,15.10
2023-02-22T07:26:55.581Z,16.27
2023-02-22T07:29:25.324Z,21.00
2023-02-22T07:31:52.142Z,19.23
2023-02-22T07:34:19.023Z,15.50
2023-02-22T07:36:45.908Z,13.63
2023-02-22T07:39:12.870Z,13.27
2023-02-22T07:41:39.909Z,13.97
2023-02-22T07:44:19.004Z,16.10
2023-02-22T07:46:50.530Z,22.77
2023-02-22T07:49:17.916Z,25.13
2023-02-22T07:51:44.752Z,23.70
2023-02-22T07:54:11.633Z,19.50
2023-02-22T07:56:44.114Z,18.03
2023-02-22T07:59:11.029Z,14.67
2023-02-22T08:01:37.785Z,14.13
2023-02-22T08:04:04.863Z,13.70
2023-02-22T08:06:32.242Z,13.53
2023-02-22T08:08:59.327Z,13.63
2023-02-22T08:11:26.575Z,12.47
2023-02-22T08:13:53.422Z,12.43
2023-02-22T08:16:20.201Z,12.27
2023-02-22T08:18:47.037Z,16.93
2023-02-22T08:21:13.953Z,15.63
2023-02-22T08:23:40.833Z,16.20
2023-02-22T08:26:09.008Z,12.97
2023-02-22T08:28:35.803Z,10.80
2023-02-22T08:31:03.518Z,11.67
2023-02-22T08:33:30.757Z,13.63
2023-02-22T08:35:58.031Z,11.77
2023-02-22T08:38:29.376Z,12.33
2023-02-22T08:40:56.659Z,11.30
2023-02-22T08:43:23.721Z,10.90
2023-02-22T08:45:52.101Z,10.40
2023-02-22T08:48:19.399Z,10.93
2023-02-22T08:50:46.943Z,10.27
2023-02-22T08:53:14.502Z,8.70
2023-02-22T08:55:42.219Z,8.53
2023-02-22T08:58:12.477Z,7.70
2023-02-22T09:00:40.180Z,8.43
2023-02-22T09:03:08.626Z,4.90
2023-02-22T09:05:35.551Z,5.67
2023-02-22T09:08:02.345Z,3.60
2023-02-22T09:10:31.340Z,6.43
2023-02-22T09:12:58.364Z,5.40
2023-02-22T09:15:25.612Z,5.10
2023-02-22T09:17:53.415Z,4.97
2023-02-22T09:20:21.137Z,4.63
2023-02-22T09:22:48.799Z,4.80
2023-02-22T09:25:17.217Z,3.80
2023-02-22T09:27:45.184Z,4.97
2023-02-22T09:30:32.508Z,6.00
2023-02-22T09:33:12.488Z,4.90
2023-02-22T09:35:42.767Z,4.47
2023-02-22T09:38:10.524Z,4.73
2023-02-22T09:40:45.527Z,3.27
2023-02-22T09:43:21.035Z,3.77
2023-02-22T09:46:05.576Z,4.20
2023-02-22T09:48:34.637Z,4.43
2023-02-22T09:51:02.612Z,4.67
2023-02-22T09:53:36.677Z,4.83
2023-02-22T09:56:22.601Z,4.83
2023-02-22T09:58:52.485Z,5.13
2023-02-22T10:01:23.901Z,3.73
2023-02-22T10:04:30.648Z,2.60
2023-02-22T10:07:02.221Z,3.03
2023-02-22T10:09:30.592Z,2.80
2023-02-22T10:12:02.900Z,3.40
2023-02-22T10:14:38.978Z,2.67
2023-02-22T10:17:06.506Z,2.63
2023-02-22T10:19:39.228Z,2.77
2023-02-22T10:22:17.963Z,3.27
2023-02-22T10:24:45.703Z,2.73
2023-02-22T10:27:26.370Z,1.90
2023-02-22T10:29:56.628Z,2.50
2023-02-22T10:32:29.478Z,2.20
2023-02-22T10:34:58.504Z,2.40
2023-02-22T10:37:27.287Z,2.37
2023-02-22T10:39:59.873Z,2.47
2023-02-22T10:42:27.675Z,3.10
2023-02-22T10:44:54.661Z,2.60
2023-02-22T10:47:22.175Z,2.50
2023-02-22T10:50:00.717Z,2.87
2023-02-22T10:52:32.225Z,2.63
2023-02-22T10:55:14.041Z,2.60
2023-02-22T10:57:42.562Z,3.23
2023-02-22T11:00:29.642Z,2.40
2023-02-22T11:02:58.802Z,2.70
2023-02-22T11:05:30.435Z,3.10
2023-02-22T11:08:15.625Z,2.70
2023-02-22T11:10:43.555Z,2.93
2023-02-22T11:13:31.452Z,2.73
2023-02-22T11:16:16.837Z,2.67
2023-02-22T11:18:43.875Z,2.83
2023-02-22T11:21:12.464Z,3.07
2023-02-22T11:23:44.855Z,2.43
2023-02-22T11:26:16.185Z,3.00
2023-02-22T11:28:49.556Z,2.77
2023-02-22T11:31:24.567Z,3.03
2023-02-22T11:33:59.397Z,3.07
2023-02-22T11:36:44.474Z,3.03
2023-02-22T11:39:25.335Z,2.30
2023-02-22T11:41:52.405Z,2.40
2023-02-22T11:44:28.397Z,3.40
2023-02-22T11:46:56.443Z,2.90
2023-02-22T11:49:33.521Z,3.00
2023-02-22T11:52:12.742Z,2.90
2023-02-22T11:54:39.563Z,2.90
2023-02-22T11:57:07.378Z,3.50
2023-02-22T11:59:55.848Z,6.17
2023-02-22T12:02:25.553Z,4.97
2023-02-22T12:04:52.499Z,6.03
2023-02-22T12:07:22.317Z,3.40
2023-02-22T12:09:52.364Z,3.67
2023-02-22T12:12:38.822Z,3.67
2023-02-22T12:15:14.874Z,4.10
2023-02-22T12:18:05.419Z,3.63
2023-02-22T12:20:37.836Z,4.00
2023-02-22T12:23:37.179Z,4.27
2023-02-22T12:26:08.540Z,4.23
2023-02-22T12:28:45.642Z,3.40
2023-02-22T12:31:25.454Z,3.30
2023-02-22T12:34:12.674Z,3.93
2023-02-22T12:36:48.531Z,4.10
2023-02-22T12:39:47.146Z,4.07
2023-02-22T12:42:21.154Z,3.73
2023-02-22T12:44:52.827Z,3.13
2023-02-22T12:47:23.364Z,3.27
2023-02-22T12:49:56.447Z,3.40
2023-02-22T12:52:40.285Z,3.77
2023-02-22T12:55:25.360Z,3.47
2023-02-22T12:58:10.524Z,3.50
2023-02-22T13:01:07.260Z,4.17
2023-02-22T13:03:44.336Z,3.43
2023-02-22T13:06:29.955Z,3.53
2023-02-22T13:09:06.097Z,5.07
2023-02-22T13:11:32.922Z,5.80
2023-02-22T13:14:08.704Z,5.10
2023-02-22T13:16:38.647Z,5.73
2023-02-22T13:19:20.837Z,5.50
2023-02-22T13:21:57.387Z,5.17
2023-02-22T13:24:33.063Z,4.53
2023-02-22T13:27:12.077Z,5.33
2023-02-22T13:29:40.181Z,6.73
2023-02-22T13:32:22.101Z,5.83
2023-02-22T13:34:51.844Z,4.13
2023-02-22T13:37:21.432Z,4.30
2023-02-22T13:39:55.154Z,6.40
2023-02-22T13:42:22.689Z,4.33
2023-02-22T13:44:57.419Z,4.77
2023-02-22T13:47:30.470Z,6.23
2023-02-22T13:50:15.763Z,6.50
2023-02-22T13:52:43.275Z,5.80
2023-02-22T13:55:16.591Z,5.63
2023-02-22T13:57:49.874Z,5.03
2023-02-22T14:00:17.902Z,4.30
2023-02-22T14:03:01.411Z,4.07
2023-02-22T14:05:45.458Z,5.40
2023-02-22T14:08:44.654Z,4.23
2023-02-22T14:11:31.778Z,5.40
2023-02-22T14:14:01.184Z,5.37
2023-02-22T14:16:29.811Z,8.77
2023-02-22T14:19:15.622Z,6.73
2023-02-22T14:21:56.125Z,4.90
2023-02-22T14:24:23.150Z,4.90
2023-02-22T14:26:58.132Z,4.80
2023-02-22T14:29:25.890Z,4.50
2023-02-22T14:31:52.732Z,3.97
2023-02-22T14:34:31.647Z,4.37
2023-02-22T14:37:01.232Z,4.37
2023-02-22T14:39:42.507Z,3.30
2023-02-22T14:42:18.570Z,4.37
2023-02-22T14:44:50.123Z,3.40
2023-02-22T14:47:22.938Z,4.47
2023-02-22T14:49:52.209Z,3.93
2023-02-22T14:52:21.470Z,5.00
2023-02-22T14:54:52.219Z,4.30
2023-02-22T14:57:22.007Z,4.07
2023-02-22T14:59:54.976Z,4.27
2023-02-22T15:02:26.116Z,5.53
2023-02-22T15:04:54.748Z,5.83
2023-02-22T15:07:27.451Z,5.30
2023-02-22T15:10:08.131Z,6.33
2023-02-22T15:12:35.893Z,5.90
2023-02-22T15:15:14.522Z,6.77
2023-02-22T15:17:41.755Z,9.83
2023-02-22T15:20:12.268Z,9.03
2023-02-22T15:22:39.143Z,7.83
2023-02-22T15:25:07.282Z,13.33
2023-02-22T15:27:37.102Z,18.93
2023-02-22T15:30:16.744Z,23.90
2023-02-22T15:33:01.238Z,17.43
2023-02-22T15:35:30.495Z,9.10
2023-02-22T15:38:06.582Z,8.27
2023-02-22T15:40:34.009Z,39.13
2023-02-22T15:43:02.537Z,10.13
2023-02-22T15:45:29.991Z,12.40
2023-02-22T15:47:58.756Z,19.40
2023-02-22T15:50:26.222Z,13.17
2023-02-22T15:52:53.411Z,8.93
2023-02-22T15:55:25.892Z,12.47
2023-02-22T15:57:52.936Z,14.90
2023-02-22T16:00:36.392Z,20.60
2023-02-22T16:03:08.397Z,20.90
2023-02-22T16:05:55.870Z,13.90
2023-02-22T16:08:23.379Z,15.40
2023-02-22T16:10:58.858Z,15.60
2023-02-22T16:13:31.922Z,13.57
2023-02-22T16:16:04.051Z,16.20
2023-02-22T16:18:35.537Z,15.90
2023-02-22T16:21:06.989Z,28.73
2023-02-22T16:23:43.519Z,26.43
2023-02-22T16:26:21.367Z,26.90
2023-02-22T16:28:52.068Z,38.27
2023-02-22T16:31:21.439Z,55.83
2023-02-22T16:33:49.002Z,39.67
2023-02-22T16:36:16.568Z,38.20
2023-02-22T16:38:47.345Z,30.67
2023-02-22T16:41:19.816Z,41.43
2023-02-22T16:43:47.432Z,44.37
2023-02-22T16:46:15.079Z,52.50
2023-02-22T16:48:43.735Z,28.33
2023-02-22T16:51:24.632Z,16.13
2023-02-22T16:53:53.459Z,11.30
2023-02-22T16:56:21.508Z,7.50
2023-02-22T16:58:49.996Z,7.53
2023-02-22T17:01:18.209Z,6.70
2023-02-22T17:03:45.543Z,7.53
2023-02-22T17:06:12.693Z,10.90
2023-02-22T17:08:40.527Z,9.07
2023-02-22T17:11:07.909Z,11.03
2023-02-22T17:13:37.948Z,11.17
2023-02-22T17:16:05.784Z,10.23
2023-02-22T17:18:34.391Z,19.93
2023-02-22T17:21:02.710Z,21.77
2023-02-22T17:23:29.569Z,19.03
2023-02-22T17:25:56.482Z,19.13
2023-02-22T17:28:24.662Z,20.20
2023-02-22T17:30:52.559Z,24.23
2023-02-22T17:33:20.746Z,28.47
2023-02-22T17:35:47.797Z,52.23
2023-02-22T17:38:18.660Z,46.17
2023-02-22T17:40:48.293Z,25.83
2023-02-22T17:43:15.637Z,18.67
2023-02-22T17:45:42.730Z,20.30
2023-02-22T17:48:09.625Z,25.40
2023-02-22T17:50:37.304Z,29.70
2023-02-22T17:53:04.990Z,30.37
2023-02-22T17:55:34.136Z,21.87
2023-02-22T17:58:01.170Z,46.20
2023-02-22T18:00:36.341Z,105.03
2023-02-22T18:03:04.688Z,81.97
2023-02-22T18:05:33.470Z,63.23
2023-02-22T18:08:00.756Z,39.20
2023-02-22T18:10:27.667Z,24.43
2023-02-22T18:12:55.265Z,23.30
2023-02-22T18:15:22.134Z,27.93
2023-02-22T18:17:49.939Z,36.50
2023-02-22T18:20:31.741Z,30.93
2023-02-22T18:22:59.110Z,30.30
2023-02-22T18:25:26.363Z,30.23
2023-02-22T18:27:55.291Z,29.63
2023-02-22T18:30:22.345Z,35.17
2023-02-22T18:32:49.280Z,28.93
2023-02-22T18:35:16.097Z,28.33
2023-02-22T18:37:44.644Z,38.37
2023-02-22T18:40:11.506Z,36.70
2023-02-22T18:42:39.185Z,30.63
2023-02-22T18:45:06.628Z,31.43
2023-02-22T18:47:38.347Z,36.10
2023-02-22T18:50:05.391Z,29.77
2023-02-22T18:52:33.555Z,31.83
2023-02-22T18:55:00.430Z,31.17
2023-02-22T18:57:27.873Z,30.80
2023-02-22T18:59:57.122Z,32.93
2023-02-22T19:02:25.735Z,30.83
2023-02-22T19:04:53.203Z,29.20
2023-02-22T19:07:22.201Z,28.60
2023-02-22T19:09:52.440Z,28.90
2023-02-22T19:12:19.696Z,28.93
2023-02-22T19:14:46.468Z,29.63
2023-02-22T19:17:16.835Z,25.97
2023-02-22T19:19:44.143Z,28.10
2023-02-22T19:22:15.310Z,28.77
2023-02-22T19:24:43.046Z,25.93
2023-02-22T19:27:10.504Z,27.53
2023-02-22T19:29:40.749Z,28.27
2023-02-22T19:32:08.830Z,30.13
2023-02-22T19:34:37.211Z,28.57
2023-02-22T19:37:05.603Z,24.60
2023-02-22T19:39:34.122Z,23.27
2023-02-22T19:42:02.472Z,23.07
2023-02-22T19:44:30.594Z,23.43
2023-02-22T19:46:58.625Z,23.93
2023-02-22T19:49:27.618Z,21.20
2023-02-22T19:51:58.418Z,20.33
2023-02-22T19:54:25.964Z,20.30
2023-02-22T19:56:53.260Z,22.83
2023-02-22T19:59:24.349Z,19.10
2023-02-22T20:01:55.518Z,20.73
2023-02-22T20:04:24.144Z,21.93
2023-02-22T20:06:55.290Z,25.30
2023-02-22T20:09:24.498Z,27.50
2023-02-22T20:11:52.597Z,25.13
2023-02-22T20:14:24.484Z,27.33
2023-02-22T20:16:52.059Z,26.83
2023-02-22T20:19:18.887Z,28.03
2023-02-22T20:21:46.036Z,25.80
2023-02-22T20:24:15.778Z,26.83
2023-02-22T20:26:43.513Z,25.23
2023-02-22T20:29:11.486Z,25.17
2023-02-22T20:31:40.577Z,24.33
2023-02-22T20:34:10.131Z,22.70
2023-02-22T20:36:41.749Z,22.33
2023-02-22T20:39:13.876Z,21.03
2023-02-22T20:41:43.373Z,20.13
2023-02-22T20:44:12.343Z,18.90
2023-02-22T20:46:40.080Z,18.77
2023-02-22T20:49:08.405Z,17.30
2023-02-22T20:51:35.649Z,17.27
2023-02-22T20:54:03.194Z,18.47
2023-02-22T20:56:30.835Z,18.10
2023-02-22T20:58:58.689Z,16.87
2023-02-22T21:01:25.812Z,18.80
2023-02-22T21:03:52.742Z,16.30
2023-02-22T21:06:21.641Z,17.30
2023-02-22T21:08:53.914Z,17.27
2023-02-22T21:11:21.416Z,17.83
2023-02-22T21:13:48.195Z,16.87
2023-02-22T21:16:21.705Z,16.63
2023-02-22T21:18:52.182Z,16.47
2023-02-22T21:21:19.761Z,16.70
2023-02-22T21:23:51.446Z,19.37
2023-02-22T21:26:19.907Z,18.37
2023-02-22T21:28:53.855Z,17.93
2023-02-22T21:31:22.843Z,19.57
2023-02-22T21:33:51.710Z,20.17
2023-02-22T21:36:18.548Z,19.37
2023-02-22T21:38:47.212Z,18.10
2023-02-22T21:41:15.935Z,20.37
2023-02-22T21:43:44.568Z,22.07
2023-02-22T21:46:11.365Z,20.40
2023-02-22T21:48:48.479Z,22.17
2023-02-22T21:51:21.019Z,20.27
2023-02-22T21:53:50.701Z,20.53
2023-02-22T21:56:22.641Z,20.47
2023-02-22T21:58:54.384Z,19.10
2023-02-22T22:01:22.043Z,17.13
2023-02-22T22:03:49.581Z,17.90
2023-02-22T22:06:16.598Z,18.77
2023-02-22T22:08:44.103Z,17.57
2023-02-22T22:11:12.189Z,18.03
2023-02-22T22:13:41.133Z,16.83
2023-02-22T22:16:09.854Z,16.43
2023-02-22T22:18:37.573Z,15.80
2023-02-22T22:21:10.682Z,16.07
2023-02-22T22:23:42.122Z,15.47
2023-02-22T22:26:13.517Z,16.53
2023-02-22T22:28:41.802Z,16.77
2023-02-22T22:31:09.178Z,15.10
2023-02-22T22:33:37.135Z,17.07
2023-02-22T22:36:06.085Z,16.57
2023-02-22T22:38:34.316Z,16.27
2023-02-22T22:41:02.569Z,16.53
2023-02-22T22:43:30.327Z,16.90
2023-02-22T22:46:03.057Z,16.20
2023-02-22T22:48:31.745Z,17.60
2023-02-22T22:51:03.587Z,15.73
2023-02-22T22:53:32.041Z,17.97
2023-02-22T22:56:19.852Z,17.87
2023-02-22T22:58:52.289Z,16.93
2023-02-22T23:01:27.272Z,17.57
2023-02-22T23:04:01.672Z,17.80
2023-02-22T23:06:33.602Z,15.97
2023-02-22T23:09:11.741Z,16.57
2023-02-22T23:11:45.134Z,16.33
2023-02-22T23:14:20.840Z,15.77
2023-02-22T23:16:49.661Z,15.87
2023-02-22T23:19:16.730Z,15.73
2023-02-22T23:21:46.682Z,18.00
2023-02-22T23:24:16.310Z,17.90
2023-02-22T23:26:49.336Z,17.13
2023-02-22T23:29:17.483Z,17.77
2023-02-22T23:31:48.736Z,17.97
2023-02-22T23:34:21.427Z,18.70
2023-02-22T23:36:48.921Z,17.20
2023-02-22T23:39:17.237Z,17.40
2023-02-22T23:41:44.106Z,18.00
2023-02-22T23:44:14.146Z,17.43
2023-02-22T23:46:41.894Z,16.93
2023-02-22T23:49:10.023Z,16.63
2023-02-22T23:51:43.095Z,18.10
2023-02-22T23:54:12.586Z,15.63
2023-02-22T23:56:40.477Z,17.63
2023-02-22T23:59:13.754Z,18.13
